createdAt,value
2023-08-07T00:00:57.798Z,11.18
2023-08-07T00:03:27.129Z,11.18
2023-08-07T00:05:58.256Z,11.16
2023-08-07T00:08:27.284Z,11.13
2023-08-07T00:11:08.510Z,11.16
2023-08-07T00:13:37.139Z,11.12
2023-08-07T00:16:04.941Z,11.07
2023-08-07T00:18:34.767Z,11.09
2023-08-07T00:21:04.642Z,11.08
2023-08-07T00:23:33.754Z,11.06
2023-08-07T00:26:04.374Z,11.04
2023-08-07T00:28:32.998Z,11.02
2023-08-07T00:31:00.904Z,11.01
2023-08-07T00:33:30.857Z,10.99
2023-08-07T00:35:58.817Z,10.98
2023-08-07T00:38:28.636Z,11.01
2023-08-07T00:40:58.859Z,11.01
2023-08-07T00:43:27.640Z,10.96
2023-08-07T00:45:55.914Z,10.91
2023-08-07T00:48:24.854Z,10.92
2023-08-07T00:50:54.969Z,10.89
2023-08-07T00:53:24.306Z,10.90
2023-08-07T00:55:52.034Z,10.86
2023-08-07T00:58:20.726Z,10.83
2023-08-07T01:00:48.434Z,10.83
2023-08-07T01:03:16.399Z,10.84
2023-08-07T01:05:45.004Z,10.83
2023-08-07T01:08:16.052Z,10.84
2023-08-07T01:11:08.096Z,10.81
2023-08-07T01:14:09.039Z,10.85
2023-08-07T01:16:41.637Z,10.85
2023-08-07T01:19:26.377Z,10.79
2023-08-07T01:22:14.362Z,10.80
2023-08-07T01:24:47.529Z,10.82
2023-08-07T01:27:14.969Z,10.81
2023-08-07T01:30:14.630Z,10.80
2023-08-07T01:33:17.565Z,10.79
2023-08-07T01:35:52.694Z,10.81
2023-08-07T01:38:25.586Z,10.76
2023-08-07T01:40:55.070Z,10.81
2023-08-07T01:43:23.777Z,10.80
2023-08-07T01:45:53.974Z,10.79
2023-08-07T01:48:25.934Z,10.78
2023-08-07T01:50:54.639Z,10.80
2023-08-07T01:53:25.929Z,10.77
2023-08-07T01:55:54.516Z,10.74
2023-08-07T01:58:22.144Z,10.73
2023-08-07T02:00:53.694Z,10.79
2023-08-07T02:03:21.570Z,10.76
2023-08-07T02:05:50.762Z,10.74
2023-08-07T02:08:18.944Z,10.70
2023-08-07T02:10:50.571Z,10.69
2023-08-07T02:13:18.648Z,10.67
2023-08-07T02:15:46.426Z,10.70
2023-08-07T02:18:17.861Z,10.70
2023-08-07T02:20:47.194Z,10.70
2023-08-07T02:23:15.563Z,10.69
2023-08-07T02:25:43.264Z,10.63
2023-08-07T02:28:11.849Z,10.66
2023-08-07T02:30:39.582Z,10.69
2023-08-07T02:33:10.283Z,10.68
2023-08-07T02:35:37.838Z,10.66
2023-08-07T02:38:05.364Z,10.62
2023-08-07T02:40:33.517Z,10.66
2023-08-07T02:43:02.708Z,10.66
2023-08-07T02:45:34.973Z,10.65
2023-08-07T02:48:04.840Z,10.59
2023-08-07T02:50:37.531Z,10.57
2023-08-07T02:53:05.050Z,10.58
2023-08-07T02:55:32.959Z,10.59
2023-08-07T02:58:00.635Z,10.57
2023-08-07T03:00:29.249Z,10.59
2023-08-07T03:02:58.058Z,10.56
2023-08-07T03:05:26.879Z,10.54
2023-08-07T03:07:55.413Z,10.52
2023-08-07T03:10:26.837Z,10.56
2023-08-07T03:12:55.510Z,10.54
2023-08-07T03:15:23.537Z,10.53
2023-08-07T03:17:52.631Z,10.50
2023-08-07T03:20:21.485Z,10.53
2023-08-07T03:22:51.748Z,10.49
2023-08-07T03:25:19.877Z,10.51
2023-08-07T03:27:48.418Z,10.50
2023-08-07T03:30:16.887Z,10.46
2023-08-07T03:32:47.169Z,10.47
2023-08-07T03:35:17.547Z,10.45
2023-08-07T03:37:45.760Z,10.45
2023-08-07T03:40:13.342Z,10.44
2023-08-07T03:42:42.873Z,10.44
2023-08-07T03:45:12.806Z,10.43
2023-08-07T03:47:43.263Z,10.41
2023-08-07T03:50:11.968Z,10.44
2023-08-07T03:52:41.161Z,10.40
2023-08-07T03:55:10.328Z,10.37
2023-08-07T03:57:38.044Z,10.43
2023-08-07T04:00:08.510Z,10.45
2023-08-07T04:02:43.027Z,10.42
2023-08-07T04:05:14.615Z,10.41
2023-08-07T04:07:45.840Z,10.38
2023-08-07T04:10:15.121Z,10.38
2023-08-07T04:12:45.317Z,10.38
2023-08-07T04:15:13.016Z,10.37
2023-08-07T04:17:41.157Z,10.34
2023-08-07T04:20:09.710Z,10.37
2023-08-07T04:22:38.792Z,10.36
2023-08-07T04:25:07.705Z,10.34
2023-08-07T04:27:36.389Z,10.34
2023-08-07T04:30:05.339Z,10.34
2023-08-07T04:32:35.857Z,10.35
2023-08-07T04:35:05.578Z,10.34
2023-08-07T04:37:34.350Z,10.31
2023-08-07T04:40:02.976Z,10.34
2023-08-07T04:42:34.078Z,10.31
2023-08-07T04:45:04.778Z,10.33
2023-08-07T04:47:33.679Z,10.30
2023-08-07T04:50:01.674Z,10.26
2023-08-07T04:52:30.140Z,10.27
2023-08-07T04:54:58.592Z,10.24
2023-08-07T04:57:28.855Z,10.28
2023-08-07T04:59:57.892Z,10.25
2023-08-07T05:02:25.821Z,10.27
2023-08-07T05:04:54.351Z,10.26
2023-08-07T05:07:22.766Z,10.27
2023-08-07T05:09:52.002Z,10.24
2023-08-07T05:12:21.205Z,10.25
2023-08-07T05:14:49.745Z,10.26
2023-08-07T05:17:21.768Z,10.27
2023-08-07T05:19:49.521Z,10.26
2023-08-07T05:22:18.688Z,10.26
2023-08-07T05:24:50.956Z,10.27
2023-08-07T05:27:19.779Z,10.23
2023-08-07T05:29:48.469Z,10.22
2023-08-07T05:32:17.774Z,10.24
2023-08-07T05:34:50.880Z,10.22
2023-08-07T05:37:18.595Z,10.22
2023-08-07T05:39:49.731Z,10.24
2023-08-07T05:42:17.852Z,10.26
2023-08-07T05:44:55.971Z,10.27
2023-08-07T05:47:28.420Z,10.28
2023-08-07T05:49:58.110Z,10.30
2023-08-07T05:52:26.619Z,10.29
2023-08-07T05:54:55.243Z,10.33
2023-08-07T05:57:23.202Z,10.34
2023-08-07T05:59:53.524Z,10.51
2023-08-07T06:02:21.917Z,10.73
2023-08-07T06:04:52.324Z,11.03
2023-08-07T06:07:19.810Z,11.02
2023-08-07T06:09:52.211Z,10.56
2023-08-07T06:12:21.135Z,10.49
2023-08-07T06:14:50.094Z,10.43
2023-08-07T06:17:20.506Z,10.41
2023-08-07T06:19:48.159Z,10.41
2023-08-07T06:22:16.599Z,10.41
2023-08-07T06:24:45.817Z,10.46
2023-08-07T06:27:14.407Z,10.48
2023-08-07T06:29:41.904Z,10.50
2023-08-07T06:32:11.819Z,10.48
2023-08-07T06:34:39.621Z,10.52
2023-08-07T06:37:10.611Z,10.54
2023-08-07T06:39:40.469Z,10.57
2023-08-07T06:42:13.479Z,10.56
2023-08-07T06:44:45.504Z,10.58
2023-08-07T06:47:15.879Z,10.73
2023-08-07T06:49:44.985Z,10.60
2023-08-07T06:52:12.559Z,10.54
2023-08-07T06:54:41.323Z,10.48
2023-08-07T06:57:08.932Z,10.46
2023-08-07T06:59:39.780Z,10.54
2023-08-07T07:02:13.523Z,10.59
2023-08-07T07:04:43.178Z,10.61
2023-08-07T07:07:10.801Z,10.62
2023-08-07T07:09:39.027Z,10.60
2023-08-07T07:12:07.028Z,10.62
2023-08-07T07:14:35.260Z,10.68
2023-08-07T07:17:05.619Z,10.71
2023-08-07T07:19:34.690Z,10.69
2023-08-07T07:22:02.205Z,10.70
2023-08-07T07:24:29.715Z,10.77
2023-08-07T07:26:59.736Z,10.79
2023-08-07T07:29:27.665Z,10.78
2023-08-07T07:31:57.124Z,10.81
2023-08-07T07:34:27.641Z,10.86
2023-08-07T07:36:55.799Z,10.91
2023-08-07T07:39:23.602Z,10.91
2023-08-07T07:41:51.208Z,10.89
2023-08-07T07:44:20.054Z,10.96
2023-08-07T07:46:47.851Z,10.94
2023-08-07T07:49:15.657Z,10.92
2023-08-07T07:51:46.784Z,10.92
2023-08-07T07:54:15.574Z,10.99
2023-08-07T07:56:44.706Z,10.96
2023-08-07T07:59:14.848Z,11.04
2023-08-07T08:01:42.538Z,11.09
2023-08-07T08:04:14.027Z,11.03
2023-08-07T08:06:44.793Z,10.99
2023-08-07T08:09:12.556Z,10.95
2023-08-07T08:11:40.865Z,10.96
2023-08-07T08:14:10.828Z,10.99
2023-08-07T08:16:40.985Z,11.00
2023-08-07T08:19:11.060Z,11.01
2023-08-07T08:21:41.664Z,11.01
2023-08-07T08:24:16.246Z,10.99
2023-08-07T08:26:44.963Z,11.06
2023-08-07T08:29:16.275Z,11.10
2023-08-07T08:31:45.475Z,11.07
2023-08-07T08:34:13.202Z,11.09
2023-08-07T08:36:41.590Z,11.14
2023-08-07T08:39:10.442Z,11.19
2023-08-07T08:41:38.415Z,11.26
2023-08-07T08:44:08.274Z,11.31
2023-08-07T08:46:37.605Z,11.38
2023-08-07T08:49:07.153Z,11.41
2023-08-07T08:51:35.008Z,11.43
2023-08-07T08:54:03.917Z,11.45
2023-08-07T08:56:32.846Z,11.43
2023-08-07T08:59:04.028Z,11.47
2023-08-07T09:01:33.990Z,11.45
2023-08-07T09:04:06.936Z,11.40
2023-08-07T09:06:35.416Z,11.40
2023-08-07T09:09:07.535Z,11.40
2023-08-07T09:11:37.323Z,11.41
2023-08-07T09:14:05.554Z,11.39
2023-08-07T09:16:34.998Z,11.40
2023-08-07T09:19:06.052Z,11.45
2023-08-07T09:21:34.889Z,11.51
2023-08-07T09:24:04.091Z,11.54
2023-08-07T09:26:34.884Z,11.49
2023-08-07T09:29:06.115Z,11.50
2023-08-07T09:31:42.090Z,11.53
2023-08-07T09:34:09.820Z,11.55
2023-08-07T09:36:38.623Z,11.60
2023-08-07T09:39:06.788Z,11.66
2023-08-07T09:41:36.426Z,11.51
2023-08-07T09:44:12.291Z,11.41
2023-08-07T09:46:44.271Z,11.49
2023-08-07T09:49:17.289Z,11.48
2023-08-07T09:51:48.254Z,11.53
2023-08-07T09:54:22.761Z,11.59
2023-08-07T09:56:52.396Z,11.60
2023-08-07T09:59:22.388Z,11.60
2023-08-07T10:01:52.413Z,11.65
2023-08-07T10:04:24.377Z,11.77
2023-08-07T10:06:53.783Z,11.79
2023-08-07T10:09:22.408Z,11.71
2023-08-07T10:11:52.661Z,11.73
2023-08-07T10:14:23.521Z,11.80
2023-08-07T10:16:53.481Z,11.79
2023-08-07T10:19:23.760Z,11.83
2023-08-07T10:21:54.757Z,11.85
2023-08-07T10:24:26.155Z,11.93
2023-08-07T10:26:56.418Z,11.99
2023-08-07T10:29:27.087Z,12.05
2023-08-07T10:31:59.551Z,12.10
2023-08-07T10:34:33.626Z,12.25
2023-08-07T10:37:07.436Z,12.33
2023-08-07T10:39:36.241Z,12.23
2023-08-07T10:42:06.957Z,12.25
2023-08-07T10:44:35.256Z,12.30
2023-08-07T10:47:04.095Z,12.28
2023-08-07T10:49:40.126Z,12.28
2023-08-07T10:52:17.653Z,12.40
2023-08-07T10:54:50.163Z,12.27
2023-08-07T10:57:21.445Z,12.27
2023-08-07T11:00:09.728Z,12.37
2023-08-07T11:02:43.126Z,12.28
2023-08-07T11:05:14.938Z,12.27
2023-08-07T11:07:48.481Z,12.28
2023-08-07T11:10:18.474Z,12.37
2023-08-07T11:12:49.759Z,12.37
2023-08-07T11:15:19.218Z,12.34
2023-08-07T11:17:50.283Z,12.44
2023-08-07T11:20:19.443Z,12.43
2023-08-07T11:22:50.427Z,12.36
2023-08-07T11:25:20.928Z,12.36
2023-08-07T11:27:50.558Z,12.35
2023-08-07T11:30:18.177Z,12.35
2023-08-07T11:32:48.663Z,12.53
2023-08-07T11:35:19.551Z,12.72
2023-08-07T11:37:51.810Z,12.72
2023-08-07T11:40:20.480Z,12.77
2023-08-07T11:42:48.531Z,12.67
2023-08-07T11:45:16.532Z,12.74
2023-08-07T11:47:44.752Z,12.79
2023-08-07T11:50:13.038Z,12.85
2023-08-07T11:52:41.898Z,12.88
2023-08-07T11:55:16.493Z,12.84
2023-08-07T11:57:47.975Z,12.95
2023-08-07T12:00:18.996Z,12.90
2023-08-07T12:02:47.734Z,12.91
2023-08-07T12:05:18.340Z,12.80
2023-08-07T12:07:51.041Z,12.80
2023-08-07T12:10:18.994Z,12.89
2023-08-07T12:12:47.630Z,12.83
2023-08-07T12:15:19.402Z,12.85
2023-08-07T12:17:48.254Z,12.96
2023-08-07T12:20:18.330Z,13.01
2023-08-07T12:22:47.143Z,12.83
2023-08-07T12:25:16.529Z,12.80
2023-08-07T12:27:49.374Z,12.91
2023-08-07T12:30:18.358Z,12.91
2023-08-07T12:32:49.974Z,12.85
2023-08-07T12:35:18.548Z,12.82
2023-08-07T12:37:47.070Z,12.70
2023-08-07T12:42:49.557Z,12.77
2023-08-07T12:45:51.741Z,12.73
2023-08-07T12:48:11.340Z,12.76
2023-08-07T12:50:42.288Z,12.62
2023-08-07T12:53:10.787Z,12.48
2023-08-07T12:55:44.251Z,12.49
2023-08-07T12:58:13.205Z,12.56
2023-08-07T13:00:40.795Z,12.55
2023-08-07T13:03:08.438Z,12.47
2023-08-07T13:05:38.542Z,12.31
2023-08-07T13:08:08.405Z,12.19
2023-08-07T13:10:38.030Z,12.23
2023-08-07T13:13:07.910Z,12.13
2023-08-07T13:15:39.832Z,12.16
2023-08-07T13:18:08.187Z,12.15
2023-08-07T13:20:36.035Z,12.11
2023-08-07T13:23:07.523Z,12.12
2023-08-07T13:25:38.862Z,12.24
2023-08-07T13:28:08.006Z,12.20
2023-08-07T13:30:37.680Z,12.27
2023-08-07T13:33:05.968Z,12.31
2023-08-07T13:35:39.108Z,12.44
2023-08-07T13:38:09.281Z,12.59
2023-08-07T13:40:39.259Z,12.57
2023-08-07T13:43:10.785Z,12.53
2023-08-07T13:45:39.560Z,12.59
2023-08-07T13:48:11.163Z,12.52
2023-08-07T13:50:42.337Z,12.46
2023-08-07T13:53:14.927Z,12.57
2023-08-07T13:55:52.988Z,12.65
2023-08-07T13:58:22.225Z,12.72
2023-08-07T14:00:50.465Z,12.65
2023-08-07T14:03:26.359Z,12.60
2023-08-07T14:05:55.239Z,12.65
2023-08-07T14:08:23.524Z,12.68
2023-08-07T14:10:51.875Z,12.73
2023-08-07T14:13:19.641Z,12.77
2023-08-07T14:15:48.124Z,12.83
2023-08-07T14:18:18.030Z,12.84
2023-08-07T14:21:01.318Z,12.93
2023-08-07T14:23:34.669Z,12.96
2023-08-07T14:26:06.460Z,13.03
2023-08-07T14:28:34.348Z,13.03
2023-08-07T14:31:02.469Z,12.87
2023-08-07T14:33:30.616Z,12.83
2023-08-07T14:35:59.235Z,12.87
2023-08-07T14:38:26.822Z,12.84
2023-08-07T14:40:54.643Z,12.88
2023-08-07T14:43:23.797Z,12.88
2023-08-07T14:45:52.093Z,12.93
2023-08-07T14:48:21.265Z,12.91
2023-08-07T14:50:50.937Z,12.90
2023-08-07T14:53:18.690Z,12.88
2023-08-07T14:55:49.854Z,12.98
2023-08-07T14:58:20.590Z,13.16
2023-08-07T15:00:50.507Z,13.17
2023-08-07T15:03:18.140Z,13.24
2023-08-07T15:05:47.302Z,13.49
2023-08-07T15:08:17.441Z,13.81
2023-08-07T15:10:46.824Z,13.62
2023-08-07T15:13:19.018Z,13.71
2023-08-07T15:15:48.246Z,13.72
2023-08-07T15:18:18.121Z,13.57
2023-08-07T15:20:50.131Z,13.58
2023-08-07T15:23:19.157Z,13.65
2023-08-07T15:25:46.772Z,13.76
2023-08-07T15:28:14.783Z,13.64
2023-08-07T15:30:53.203Z,13.64
2023-08-07T15:33:23.577Z,13.55
2023-08-07T15:35:56.683Z,13.61
2023-08-07T15:38:27.573Z,13.69
2023-08-07T15:40:55.366Z,13.71
2023-08-07T15:43:24.537Z,13.91
2023-08-07T15:45:54.302Z,13.97
2023-08-07T15:48:24.379Z,13.89
2023-08-07T15:50:52.805Z,14.02
2023-08-07T15:53:20.706Z,14.24
2023-08-07T15:55:50.761Z,14.47
2023-08-07T15:58:19.383Z,14.37
2023-08-07T16:00:52.431Z,14.51
2023-08-07T16:03:23.285Z,14.51
2023-08-07T16:05:51.550Z,14.47
2023-08-07T16:08:20.035Z,14.49
2023-08-07T16:10:48.101Z,14.47
2023-08-07T16:13:16.997Z,14.40
2023-08-07T16:15:46.286Z,14.46
2023-08-07T16:18:19.225Z,14.52
2023-08-07T16:20:51.963Z,14.79
2023-08-07T16:23:19.935Z,14.86
2023-08-07T16:25:49.239Z,14.90
2023-08-07T16:28:17.249Z,15.31
2023-08-07T16:30:44.832Z,15.96
2023-08-07T16:33:13.727Z,15.81
2023-08-07T16:35:42.603Z,16.39
2023-08-07T16:38:10.509Z,16.49
2023-08-07T16:40:39.491Z,16.41
2023-08-07T16:43:08.273Z,16.49
2023-08-07T16:45:36.615Z,16.74
2023-08-07T16:48:04.938Z,16.71
2023-08-07T16:50:33.556Z,16.21
2023-08-07T16:53:02.148Z,16.18
2023-08-07T16:55:34.431Z,16.11
2023-08-07T16:58:02.471Z,16.06
2023-08-07T17:00:31.540Z,16.19
2023-08-07T17:02:59.676Z,16.26
2023-08-07T17:05:30.563Z,16.31
2023-08-07T17:07:59.836Z,16.04
2023-08-07T17:10:28.360Z,16.25
2023-08-07T17:12:59.958Z,16.35
2023-08-07T17:15:28.860Z,16.46
2023-08-07T17:17:56.568Z,16.47
2023-08-07T17:20:27.101Z,16.68
2023-08-07T17:22:55.710Z,16.26
2023-08-07T17:25:24.336Z,16.15
2023-08-07T17:27:51.969Z,16.07
2023-08-07T17:30:19.804Z,16.12
2023-08-07T17:32:48.680Z,15.93
2023-08-07T17:35:17.748Z,15.43
2023-08-07T17:37:46.464Z,15.29
2023-08-07T17:40:16.900Z,15.23
2023-08-07T17:42:44.598Z,15.20
2023-08-07T17:45:13.644Z,15.12
2023-08-07T17:47:43.834Z,15.11
2023-08-07T17:50:11.465Z,14.98
2023-08-07T17:52:40.798Z,14.88
2023-08-07T17:55:13.261Z,14.83
2023-08-07T17:57:43.408Z,14.74
2023-08-07T18:00:20.556Z,14.63
2023-08-07T18:02:52.318Z,14.60
2023-08-07T18:05:20.550Z,14.50
2023-08-07T18:07:48.120Z,14.46
2023-08-07T18:10:17.274Z,14.41
2023-08-07T18:12:53.044Z,14.35
2023-08-07T18:15:25.006Z,14.29
2023-08-07T18:17:52.817Z,14.19
2023-08-07T18:20:21.433Z,14.17
2023-08-07T18:22:50.654Z,14.09
2023-08-07T18:25:19.298Z,14.02
2023-08-07T18:27:50.508Z,14.05
2023-08-07T18:30:20.828Z,14.00
2023-08-07T18:32:55.162Z,13.90
2023-08-07T18:35:25.797Z,13.84
2023-08-07T18:37:53.984Z,13.74
2023-08-07T18:40:21.614Z,13.69
2023-08-07T18:42:49.170Z,13.55
2023-08-07T18:45:18.423Z,13.52
2023-08-07T18:47:46.235Z,13.47
2023-08-07T18:50:14.029Z,13.36
2023-08-07T18:52:42.157Z,13.31
2023-08-07T18:55:10.037Z,13.29
2023-08-07T18:57:42.664Z,13.24
2023-08-07T19:00:12.418Z,13.23
2023-08-07T19:02:42.294Z,13.23
2023-08-07T19:05:10.669Z,13.23
2023-08-07T19:07:38.579Z,13.34
2023-08-07T19:10:09.476Z,13.47
2023-08-07T19:12:41.926Z,13.54
2023-08-07T19:15:14.003Z,13.49
2023-08-07T19:17:41.708Z,13.50
2023-08-07T19:20:12.088Z,13.47
2023-08-07T19:22:40.487Z,13.43
2023-08-07T19:25:14.053Z,13.36
2023-08-07T19:27:44.645Z,13.23
2023-08-07T19:30:13.601Z,13.13
2023-08-07T19:32:42.448Z,13.08
2023-08-07T19:35:11.300Z,13.05
2023-08-07T19:37:39.682Z,13.00
2023-08-07T19:40:10.199Z,12.95
2023-08-07T19:42:38.097Z,12.89
2023-08-07T19:45:06.287Z,12.88
2023-08-07T19:47:36.575Z,12.90
2023-08-07T19:50:08.117Z,12.80
2023-08-07T19:52:35.677Z,12.68
2023-08-07T19:55:12.802Z,12.64
2023-08-07T19:57:43.168Z,12.67
2023-08-07T20:00:12.518Z,12.59
2023-08-07T20:02:42.000Z,12.54
2023-08-07T20:05:10.384Z,12.51
2023-08-07T20:07:39.414Z,12.52
2023-08-07T20:10:11.341Z,12.54
2023-08-07T20:12:41.630Z,12.57
2023-08-07T20:15:10.544Z,12.61
2023-08-07T20:17:38.074Z,12.66
2023-08-07T20:20:07.152Z,12.61
2023-08-07T20:22:37.350Z,12.65
2023-08-07T20:25:05.992Z,12.80
2023-08-07T20:27:33.792Z,12.83
2023-08-07T20:30:04.704Z,12.96
2023-08-07T20:32:33.471Z,13.05
2023-08-07T20:35:03.180Z,13.16
2023-08-07T20:37:32.381Z,13.16
2023-08-07T20:40:00.151Z,13.05
2023-08-07T20:42:30.278Z,12.98
2023-08-07T20:44:58.164Z,12.92
2023-08-07T20:47:25.757Z,12.77
2023-08-07T20:49:53.821Z,12.78
2023-08-07T20:52:23.297Z,12.74
2023-08-07T20:54:51.731Z,12.68
2023-08-07T20:57:22.311Z,12.62
2023-08-07T20:59:53.530Z,12.63
2023-08-07T21:02:25.251Z,12.62
2023-08-07T21:04:53.509Z,12.45
2023-08-07T21:07:21.597Z,12.38
2023-08-07T21:09:52.027Z,12.32
2023-08-07T21:12:20.377Z,12.33
2023-08-07T21:14:47.955Z,12.30
2023-08-07T21:17:16.479Z,12.28
2023-08-07T21:19:44.511Z,12.25
2023-08-07T21:22:12.205Z,12.22
2023-08-07T21:24:40.951Z,12.12
2023-08-07T21:27:12.680Z,12.10
2023-08-07T21:29:42.138Z,12.04
2023-08-07T21:32:12.973Z,11.95
2023-08-07T21:34:41.151Z,11.89
2023-08-07T21:37:09.556Z,11.83
2023-08-07T21:39:39.479Z,11.93
2023-08-07T21:42:08.095Z,11.86
2023-08-07T21:44:41.248Z,11.79
2023-08-07T21:47:10.103Z,11.78
2023-08-07T21:49:41.440Z,11.77
2023-08-07T21:52:10.358Z,11.71
2023-08-07T21:54:39.257Z,11.69
2023-08-07T21:57:07.438Z,11.71
2023-08-07T21:59:37.111Z,11.64
2023-08-07T22:02:13.264Z,11.59
2023-08-07T22:04:41.288Z,11.48
2023-08-07T22:07:08.826Z,11.41
2023-08-07T22:09:37.720Z,11.38
2023-08-07T22:12:06.439Z,11.37
2023-08-07T22:14:34.145Z,11.28
2023-08-07T22:17:01.883Z,11.24
2023-08-07T22:19:29.604Z,11.12
2023-08-07T22:22:00.183Z,11.08
2023-08-07T22:24:28.127Z,11.08
2023-08-07T22:26:56.430Z,11.04
2023-08-07T22:29:24.149Z,11.00
2023-08-07T22:31:52.455Z,11.00
2023-08-07T22:34:20.084Z,10.97
2023-08-07T22:36:50.303Z,10.96
2023-08-07T22:39:19.255Z,10.99
2023-08-07T22:41:48.815Z,11.04
2023-08-07T22:44:17.328Z,11.04
2023-08-07T22:46:48.438Z,11.03
2023-08-07T22:49:21.402Z,11.02
2023-08-07T22:51:51.140Z,10.95
2023-08-07T22:54:19.780Z,10.92
2023-08-07T22:56:47.874Z,10.87
2023-08-07T22:59:16.514Z,10.80
2023-08-07T23:01:46.832Z,10.77
2023-08-07T23:04:16.877Z,10.72
2023-08-07T23:06:46.144Z,10.72
2023-08-07T23:09:15.778Z,10.78
2023-08-07T23:11:43.656Z,10.75
2023-08-07T23:14:12.654Z,10.77
2023-08-07T23:16:41.358Z,10.80
2023-08-07T23:19:11.353Z,10.83
2023-08-07T23:21:40.092Z,10.85
2023-08-07T23:24:07.734Z,10.87
2023-08-07T23:26:37.065Z,10.94
2023-08-07T23:29:06.246Z,10.99
2023-08-07T23:31:34.149Z,10.99
2023-08-07T23:34:02.188Z,11.03
2023-08-07T23:36:31.186Z,10.99
2023-08-07T23:38:59.966Z,10.92
2023-08-07T23:41:29.164Z,10.92
2023-08-07T23:43:56.927Z,10.87
2023-08-07T23:49:09.194Z,10.99
2023-08-07T23:51:37.039Z,11.04
2023-08-07T23:54:05.646Z,11.12
2023-08-07T23:56:33.464Z,11.20
2023-08-07T23:59:01.178Z,11.25
